createdAt,value
2022-10-18T00:06:43.433Z,15.5
2022-10-18T00:46:44.089Z,15.4
2022-10-18T00:56:45.005Z,15.3
2022-10-18T01:06:45.838Z,15.3
2022-10-18T01:26:46.611Z,15.3
2022-10-18T01:36:47.462Z,15.2
2022-10-18T01:46:48.434Z,15.2
2022-10-18T02:06:49.825Z,15.2
2022-10-18T02:16:50.543Z,15.2
2022-10-18T02:26:51.002Z,15.2
2022-10-18T02:36:51.581Z,15.2
2022-10-18T02:46:52.581Z,15.2
2022-10-18T02:56:52.646Z,15.2
2022-10-18T03:16:54.478Z,15.2
2022-10-18T03:26:55.316Z,15.1
2022-10-18T03:36:56.037Z,15.2
2022-10-18T03:46:56.956Z,15.2
2022-10-18T03:56:57.704Z,15.3
2022-10-18T04:16:58.414Z,15.2
2022-10-18T04:26:58.748Z,15.2
2022-10-18T04:36:59.630Z,15.1
2022-10-18T04:47:00.435Z,15
2022-10-18T04:57:01.046Z,15.1
2022-10-18T05:17:01.978Z,15.1
2022-10-18T05:37:02.866Z,15.1
2022-10-18T06:17:04.852Z,15.1
2022-10-18T06:57:06.686Z,15.3
2022-10-18T07:17:07.281Z,15.3
2022-10-18T07:27:08.193Z,15.3
2022-10-18T07:37:08.230Z,15.4
2022-10-18T07:57:09.033Z,15.5
2022-10-18T08:07:09.551Z,15.4
2022-10-18T08:17:10.002Z,15.5
2022-10-18T08:27:10.239Z,15.4
2022-10-18T08:37:10.911Z,15.5
2022-10-18T08:47:11.287Z,15.5
2022-10-18T08:57:12.215Z,15.4
2022-10-18T09:07:12.315Z,15.5
2022-10-18T09:17:15.034Z,15.5
2022-10-18T09:27:12.827Z,15.7
2022-10-18T09:37:13.916Z,15.7
2022-10-18T09:47:16.804Z,15.6
2022-10-18T09:57:15.518Z,16
2022-10-18T10:07:15.808Z,16.5
2022-10-18T10:27:17.569Z,16.5
2022-10-18T10:37:17.656Z,16.5
2022-10-18T10:47:17.740Z,16.7
2022-10-18T10:57:18.466Z,17.1
2022-10-18T11:07:19.245Z,17.2
2022-10-18T11:17:19.470Z,17.9
2022-10-18T11:27:20.149Z,18
2022-10-18T11:37:28.432Z,18
2022-10-18T11:47:21.760Z,18.4
2022-10-18T11:57:22.720Z,19
2022-10-18T12:07:26.870Z,19.5
2022-10-18T12:17:41.065Z,19.5
2022-10-18T12:27:24.155Z,19.3
2022-10-18T12:37:24.820Z,19.7
2022-10-18T12:57:25.877Z,19.9
2022-10-18T13:17:27.520Z,19.3
2022-10-18T13:27:36.198Z,19.3
2022-10-18T13:37:28.894Z,19
2022-10-18T13:47:28.963Z,19
2022-10-18T13:57:29.466Z,19
2022-10-18T13:57:51.379Z,19
2022-10-18T14:07:35.689Z,18.6
2022-10-18T14:27:37.039Z,18.4
2022-10-18T14:37:37.122Z,18.3
2022-10-18T14:47:37.724Z,18.2
2022-10-18T14:57:38.494Z,18.2
2022-10-18T15:07:39.236Z,18
2022-10-18T15:17:39.943Z,17.9
2022-10-18T15:37:41.111Z,17.6
2022-10-18T15:47:41.858Z,17.5
2022-10-18T15:57:42.127Z,17.3
2022-10-18T16:07:42.201Z,17.1
2022-10-18T16:17:42.570Z,16.7
2022-10-18T16:47:43.629Z,15.4
2022-10-18T16:57:44.539Z,14.8
2022-10-18T17:07:45.110Z,14.3
2022-10-18T17:17:45.485Z,14
2022-10-18T17:27:46.048Z,13.7
2022-10-18T17:37:46.978Z,13.5
2022-10-18T17:47:46.965Z,13.1
2022-10-18T17:57:47.955Z,12.9
2022-10-18T18:07:48.897Z,12.7
2022-10-18T18:17:57.334Z,12.4
2022-10-18T18:27:49.103Z,12.2
2022-10-18T18:37:49.370Z,12
2022-10-18T19:07:50.492Z,11.4
2022-10-18T19:17:50.659Z,11.2
2022-10-18T19:27:51.090Z,11.2
2022-10-18T19:37:52.048Z,10.9
2022-10-18T20:17:53.739Z,10.5
2022-10-18T20:27:54.495Z,10.4
2022-10-18T20:37:54.695Z,10.2
2022-10-18T20:47:54.900Z,10.4
2022-10-18T20:57:55.465Z,10.3
2022-10-18T21:07:55.705Z,10
2022-10-18T21:17:56.132Z,9.9
2022-10-18T21:27:57.007Z,10.1
2022-10-18T21:37:57.246Z,10.2
2022-10-18T21:47:58.299Z,9.9
2022-10-18T21:57:58.719Z,9.8
2022-10-18T22:07:59.210Z,9.8
2022-10-18T22:17:59.285Z,9.8
2022-10-18T22:28:00.212Z,9.6
2022-10-18T22:38:00.911Z,9.5
2022-10-18T22:58:01.381Z,9.3
2022-10-18T23:08:02.284Z,9.2
2022-10-18T23:18:03.096Z,9
2022-10-18T23:38:04.073Z,8.7
2022-10-18T23:58:05.755Z,8.5
